sensor_id;sensor_type;location;lat;lon;timestamp;pressure;altitude;pressure_sealevel;temperature;humidity
8318;BME280;4196;48.926;8.964;2022-07-06T00:00:25;99588.53;;;16.07;83.04
8318;BME280;4196;48.926;8.964;2022-07-06T00:03:12;99588.53;;;16.07;78.80
8318;BME280;4196;48.926;8.964;2022-07-06T00:05:59;99580.59;;;16.13;77.24
8318;BME280;4196;48.926;8.964;2022-07-06T00:08:45;99584.75;;;16.24;80.03
8318;BME280;4196;48.926;8.964;2022-07-06T00:11:33;99588.28;;;16.21;79.57
8318;BME280;4196;48.926;8.964;2022-07-06T00:14:20;99576.22;;;16.12;77.27
8318;BME280;4196;48.926;8.964;2022-07-06T00:17:10;99583.16;;;16.16;80.82
8318;BME280;4196;48.926;8.964;2022-07-06T00:19:57;99585.00;;;16.08;82.89
8318;BME280;4196;48.926;8.964;2022-07-06T00:22:43;99574.84;;;15.90;85.07
8318;BME280;4196;48.926;8.964;2022-07-06T00:25:30;99588.00;;;15.85;86.43
8318;BME280;4196;48.926;8.964;2022-07-06T00:28:16;99586.50;;;15.70;87.14
8318;BME280;4196;48.926;8.964;2022-07-06T00:31:03;99581.44;;;15.57;87.85
8318;BME280;4196;48.926;8.964;2022-07-06T00:33:52;99567.72;;;15.44;89.91
8318;BME280;4196;48.926;8.964;2022-07-06T00:36:38;99592.13;;;15.40;90.17
8318;BME280;4196;48.926;8.964;2022-07-06T00:39:25;99594.75;;;15.37;91.04
8318;BME280;4196;48.926;8.964;2022-07-06T00:42:15;99591.44;;;15.24;91.22
8318;BME280;4196;48.926;8.964;2022-07-06T00:45:03;99587.19;;;15.17;91.60
8318;BME280;4196;48.926;8.964;2022-07-06T00:47:50;99601.06;;;15.22;91.44
8318;BME280;4196;48.926;8.964;2022-07-06T00:50:37;99603.72;;;15.17;91.64
8318;BME280;4196;48.926;8.964;2022-07-06T00:53:23;99593.34;;;15.11;91.03
8318;BME280;4196;48.926;8.964;2022-07-06T00:56:10;99596.81;;;15.12;90.80
8318;BME280;4196;48.926;8.964;2022-07-06T00:59:00;99589.03;;;15.09;89.00
8318;BME280;4196;48.926;8.964;2022-07-06T01:01:47;99600.28;;;15.12;89.27
8318;BME280;4196;48.926;8.964;2022-07-06T01:04:34;99605.41;;;15.21;87.13
8318;BME280;4196;48.926;8.964;2022-07-06T01:07:20;99599.13;;;15.36;84.35
8318;BME280;4196;48.926;8.964;2022-07-06T01:10:09;99595.53;;;15.45;80.79
8318;BME280;4196;48.926;8.964;2022-07-06T01:12:56;99593.75;;;15.47;80.22
8318;BME280;4196;48.926;8.964;2022-07-06T01:15:47;99582.53;;;15.39;79.51
8318;BME280;4196;48.926;8.964;2022-07-06T01:18:33;99590.34;;;15.43;79.54
8318;BME280;4196;48.926;8.964;2022-07-06T01:21:20;99585.91;;;15.50;79.70
8318;BME280;4196;48.926;8.964;2022-07-06T01:24:08;99573.75;;;15.46;78.65
8318;BME280;4196;48.926;8.964;2022-07-06T01:26:54;99582.41;;;15.51;78.32
8318;BME280;4196;48.926;8.964;2022-07-06T01:29:41;99579.94;;;15.39;78.81
8318;BME280;4196;48.926;8.964;2022-07-06T01:32:28;99572.06;;;15.42;78.43
8318;BME280;4196;48.926;8.964;2022-07-06T01:35:15;99574.78;;;15.34;78.26
8318;BME280;4196;48.926;8.964;2022-07-06T01:38:01;99568.75;;;15.31;77.86
8318;BME280;4196;48.926;8.964;2022-07-06T01:40:48;99573.94;;;15.34;78.13
8318;BME280;4196;48.926;8.964;2022-07-06T01:43:35;99565.22;;;15.36;78.91
8318;BME280;4196;48.926;8.964;2022-07-06T01:46:22;99570.31;;;15.44;77.77
8318;BME280;4196;48.926;8.964;2022-07-06T01:49:09;99547.06;;;15.27;77.38
8318;BME280;4196;48.926;8.964;2022-07-06T01:51:56;99542.75;;;15.23;77.22
8318;BME280;4196;48.926;8.964;2022-07-06T01:54:43;99571.34;;;15.32;77.94
8318;BME280;4196;48.926;8.964;2022-07-06T01:57:29;99571.38;;;15.29;78.57
8318;BME280;4196;48.926;8.964;2022-07-06T02:00:16;99578.34;;;15.29;77.57
8318;BME280;4196;48.926;8.964;2022-07-06T02:03:07;99562.81;;;15.19;78.12
8318;BME280;4196;48.926;8.964;2022-07-06T02:05:56;99574.13;;;15.18;78.39
8318;BME280;4196;48.926;8.964;2022-07-06T02:08:43;99581.19;;;15.13;78.13
8318;BME280;4196;48.926;8.964;2022-07-06T02:11:29;99569.00;;;15.12;78.81
8318;BME280;4196;48.926;8.964;2022-07-06T02:14:17;99593.19;;;15.25;78.90
8318;BME280;4196;48.926;8.964;2022-07-06T02:17:03;99595.81;;;15.25;78.36
8318;BME280;4196;48.926;8.964;2022-07-06T02:19:53;99593.97;;;15.32;78.40
8318;BME280;4196;48.926;8.964;2022-07-06T02:22:40;99581.06;;;15.21;77.80
8318;BME280;4196;48.926;8.964;2022-07-06T02:25:27;99589.63;;;15.32;78.88
8318;BME280;4196;48.926;8.964;2022-07-06T02:28:14;99591.38;;;15.32;77.90
8318;BME280;4196;48.926;8.964;2022-07-06T02:31:01;99587.91;;;15.30;78.52
8318;BME280;4196;48.926;8.964;2022-07-06T02:33:48;99588.84;;;15.26;79.01
8318;BME280;4196;48.926;8.964;2022-07-06T02:36:35;99580.16;;;15.23;78.82
8318;BME280;4196;48.926;8.964;2022-07-06T02:39:22;99584.41;;;15.31;78.36
8318;BME280;4196;48.926;8.964;2022-07-06T02:42:09;99598.41;;;15.23;80.06
8318;BME280;4196;48.926;8.964;2022-07-06T02:44:55;99586.44;;;15.10;80.80
8318;BME280;4196;48.926;8.964;2022-07-06T02:47:42;99601.97;;;15.16;81.01
8318;BME280;4196;48.926;8.964;2022-07-06T02:50:29;99604.69;;;15.09;81.34
8318;BME280;4196;48.926;8.964;2022-07-06T02:53:18;99610.03;;;14.98;81.92
8318;BME280;4196;48.926;8.964;2022-07-06T02:56:08;99620.44;;;15.03;82.49
8318;BME280;4196;48.926;8.964;2022-07-06T02:58:55;99613.59;;;14.91;82.95
8318;BME280;4196;48.926;8.964;2022-07-06T03:01:41;99610.13;;;14.92;83.19
8318;BME280;4196;48.926;8.964;2022-07-06T03:04:28;99615.28;;;14.96;83.37
8318;BME280;4196;48.926;8.964;2022-07-06T03:07:14;99617.06;;;14.93;83.84
8318;BME280;4196;48.926;8.964;2022-07-06T03:10:04;99610.97;;;14.91;83.89
8318;BME280;4196;48.926;8.964;2022-07-06T03:12:51;99609.25;;;14.90;84.40
8318;BME280;4196;48.926;8.964;2022-07-06T03:15:37;99598.13;;;14.77;84.13
8318;BME280;4196;48.926;8.964;2022-07-06T03:18:24;99598.94;;;14.81;83.71
8318;BME280;4196;48.926;8.964;2022-07-06T03:21:12;99626.75;;;14.79;84.82
8318;BME280;4196;48.926;8.964;2022-07-06T03:23:59;99631.19;;;14.73;86.41
8318;BME280;4196;48.926;8.964;2022-07-06T03:26:46;99637.25;;;14.72;86.50
8318;BME280;4196;48.926;8.964;2022-07-06T03:29:33;99620.03;;;14.56;87.99
8318;BME280;4196;48.926;8.964;2022-07-06T03:32:21;99626.97;;;14.57;87.82
8318;BME280;4196;48.926;8.964;2022-07-06T03:35:08;99633.03;;;14.62;89.15
8318;BME280;4196;48.926;8.964;2022-07-06T03:37:56;99634.84;;;14.53;89.22
8318;BME280;4196;48.926;8.964;2022-07-06T03:40:47;99640.88;;;14.56;89.86
8318;BME280;4196;48.926;8.964;2022-07-06T03:43:34;99640.88;;;14.56;89.83
8318;BME280;4196;48.926;8.964;2022-07-06T03:46:21;99634.88;;;14.45;90.16
8318;BME280;4196;48.926;8.964;2022-07-06T03:49:07;99646.13;;;14.53;90.43
8318;BME280;4196;48.926;8.964;2022-07-06T03:51:54;99647.84;;;14.54;90.93
8318;BME280;4196;48.926;8.964;2022-07-06T03:54:41;99626.16;;;14.50;90.49
8318;BME280;4196;48.926;8.964;2022-07-06T03:57:30;99640.94;;;14.52;91.85
8318;BME280;4196;48.926;8.964;2022-07-06T04:00:21;99653.06;;;14.54;91.76
8318;BME280;4196;48.926;8.964;2022-07-06T04:03:16;99650.38;;;14.63;91.97
8318;BME280;4196;48.926;8.964;2022-07-06T04:06:07;99647.78;;;14.63;91.79
8318;BME280;4196;48.926;8.964;2022-07-06T04:08:54;99652.97;;;14.66;92.61
8318;BME280;4196;48.926;8.964;2022-07-06T04:11:41;99650.34;;;14.68;91.18
8318;BME280;4196;48.926;8.964;2022-07-06T04:14:28;99651.13;;;14.74;92.77
8318;BME280;4196;48.926;8.964;2022-07-06T04:17:16;99656.31;;;14.78;92.11
8318;BME280;4196;48.926;8.964;2022-07-06T04:20:22;99643.41;;;14.67;90.69
8318;BME280;4196;48.926;8.964;2022-07-06T04:23:10;99659.72;;;14.86;91.26
8318;BME280;4196;48.926;8.964;2022-07-06T04:25:57;99654.41;;;14.95;90.76
8318;BME280;4196;48.926;8.964;2022-07-06T04:28:46;99656.91;;;15.04;90.00
8318;BME280;4196;48.926;8.964;2022-07-06T04:31:34;99648.16;;;15.08;89.14
8318;BME280;4196;48.926;8.964;2022-07-06T04:34:21;99667.91;;;15.32;88.63
8318;BME280;4196;48.926;8.964;2022-07-06T04:37:08;99666.84;;;15.47;88.26
8318;BME280;4196;48.926;8.964;2022-07-06T04:39:56;99662.28;;;16.25;84.62
8318;BME280;4196;48.926;8.964;2022-07-06T04:42:45;99669.44;;;17.14;77.97
8318;BME280;4196;48.926;8.964;2022-07-06T04:45:33;99664.38;;;18.26;70.66
8318;BME280;4196;48.926;8.964;2022-07-06T04:48:20;99669.03;;;19.48;66.02
8318;BME280;4196;48.926;8.964;2022-07-06T04:51:09;99674.78;;;20.19;61.54
8318;BME280;4196;48.926;8.964;2022-07-06T04:53:57;99675.06;;;20.89;58.98
8318;BME280;4196;48.926;8.964;2022-07-06T04:56:46;99669.41;;;21.72;56.12
8318;BME280;4196;48.926;8.964;2022-07-06T04:59:33;99675.97;;;22.07;54.71
8318;BME280;4196;48.926;8.964;2022-07-06T05:02:21;99680.84;;;22.60;52.94
8318;BME280;4196;48.926;8.964;2022-07-06T05:05:09;99670.06;;;22.45;50.97
8318;BME280;4196;48.926;8.964;2022-07-06T05:07:57;99680.47;;;22.27;52.07
8318;BME280;4196;48.926;8.964;2022-07-06T05:10:44;99673.06;;;22.78;50.53
8318;BME280;4196;48.926;8.964;2022-07-06T05:13:31;99682.47;;;23.45;49.53
8318;BME280;4196;48.926;8.964;2022-07-06T05:16:19;99691.09;;;23.29;48.81
8318;BME280;4196;48.926;8.964;2022-07-06T05:19:08;99685.19;;;23.04;49.52
8318;BME280;4196;48.926;8.964;2022-07-06T05:21:55;99689.78;;;23.58;47.69
8318;BME280;4196;48.926;8.964;2022-07-06T05:24:41;99699.59;;;23.17;49.03
8318;BME280;4196;48.926;8.964;2022-07-06T05:27:28;99693.38;;;23.57;48.44
8318;BME280;4196;48.926;8.964;2022-07-06T05:30:18;99693.00;;;24.22;47.52
8318;BME280;4196;48.926;8.964;2022-07-06T05:33:06;99692.59;;;23.93;46.98
8318;BME280;4196;48.926;8.964;2022-07-06T05:35:53;99691.13;;;24.24;46.85
8318;BME280;4196;48.926;8.964;2022-07-06T05:38:45;99680.97;;;24.15;45.68
8318;BME280;4196;48.926;8.964;2022-07-06T05:41:31;99700.00;;;23.66;46.84
8318;BME280;4196;48.926;8.964;2022-07-06T05:44:19;99699.47;;;22.78;49.63
8318;BME280;4196;48.926;8.964;2022-07-06T05:47:06;99705.16;;;22.03;50.56
8318;BME280;4196;48.926;8.964;2022-07-06T05:50:16;99696.72;;;22.38;50.75
8318;BME280;4196;48.926;8.964;2022-07-06T05:53:13;99683.19;;;23.29;49.15
8318;BME280;4196;48.926;8.964;2022-07-06T05:56:07;99690.66;;;23.97;47.43
8318;BME280;4196;48.926;8.964;2022-07-06T05:58:56;99694.16;;;23.78;46.87
8318;BME280;4196;48.926;8.964;2022-07-06T06:01:44;99694.69;;;23.28;47.60
8318;BME280;4196;48.926;8.964;2022-07-06T06:04:38;99700.47;;;23.36;47.30
8318;BME280;4196;48.926;8.964;2022-07-06T06:07:25;99699.72;;;22.94;49.27
8318;BME280;4196;48.926;8.964;2022-07-06T06:10:12;99697.81;;;22.11;51.25
8318;BME280;4196;48.926;8.964;2022-07-06T06:12:59;99700.50;;;21.64;52.35
8318;BME280;4196;48.926;8.964;2022-07-06T06:15:47;99674.78;;;20.72;55.18
8318;BME280;4196;48.926;8.964;2022-07-06T06:18:34;99694.38;;;20.09;56.96
8318;BME280;4196;48.926;8.964;2022-07-06T06:21:27;99693.78;;;19.71;59.82
8318;BME280;4196;48.926;8.964;2022-07-06T06:24:15;99702.69;;;19.67;60.47
8318;BME280;4196;48.926;8.964;2022-07-06T06:27:04;99700.94;;;19.66;60.77
8318;BME280;4196;48.926;8.964;2022-07-06T06:29:53;99696.63;;;19.32;61.53
8318;BME280;4196;48.926;8.964;2022-07-06T06:32:44;99711.09;;;19.16;63.12
8318;BME280;4196;48.926;8.964;2022-07-06T06:35:33;99725.44;;;19.35;63.43
8318;BME280;4196;48.926;8.964;2022-07-06T06:38:22;99695.66;;;19.66;62.00
8318;BME280;4196;48.926;8.964;2022-07-06T06:41:15;99701.66;;;20.00;59.77
8318;BME280;4196;48.926;8.964;2022-07-06T06:44:05;99719.22;;;19.98;59.72
8318;BME280;4196;48.926;8.964;2022-07-06T06:46:58;99723.25;;;19.82;61.08
8318;BME280;4196;48.926;8.964;2022-07-06T06:49:45;99730.00;;;19.60;61.86
8318;BME280;4196;48.926;8.964;2022-07-06T06:52:32;99736.50;;;19.46;63.41
8318;BME280;4196;48.926;8.964;2022-07-06T06:55:25;99723.56;;;19.70;62.74
8318;BME280;4196;48.926;8.964;2022-07-06T06:58:12;99723.31;;;19.79;60.91
8318;BME280;4196;48.926;8.964;2022-07-06T07:01:00;99704.72;;;19.55;62.25
8318;BME280;4196;48.926;8.964;2022-07-06T07:03:51;99717.84;;;19.87;60.01
8318;BME280;4196;48.926;8.964;2022-07-06T07:06:41;99705.00;;;19.76;60.75
8318;BME280;4196;48.926;8.964;2022-07-06T07:09:30;99694.56;;;19.74;61.61
8318;BME280;4196;48.926;8.964;2022-07-06T07:12:19;99697.41;;;19.67;60.34
8318;BME280;4196;48.926;8.964;2022-07-06T07:15:08;99706.69;;;19.16;60.92
8318;BME280;4196;48.926;8.964;2022-07-06T07:17:59;99711.22;;;19.42;62.44
8318;BME280;4196;48.926;8.964;2022-07-06T07:20:48;99726.69;;;19.53;60.87
8318;BME280;4196;48.926;8.964;2022-07-06T07:23:38;99727.34;;;19.28;60.85
8318;BME280;4196;48.926;8.964;2022-07-06T07:26:26;99722.97;;;19.29;63.08
8318;BME280;4196;48.926;8.964;2022-07-06T07:29:14;99718.09;;;19.46;60.97
8318;BME280;4196;48.926;8.964;2022-07-06T07:32:03;99709.19;;;19.52;62.15
8318;BME280;4196;48.926;8.964;2022-07-06T07:34:53;99709.59;;;19.37;59.67
8318;BME280;4196;48.926;8.964;2022-07-06T07:37:43;99712.97;;;19.11;61.67
8318;BME280;4196;48.926;8.964;2022-07-06T07:40:32;99708.16;;;19.26;61.39
8318;BME280;4196;48.926;8.964;2022-07-06T07:43:25;99697.69;;;18.92;62.68
8318;BME280;4196;48.926;8.964;2022-07-06T07:46:13;99703.38;;;19.10;61.71
8318;BME280;4196;48.926;8.964;2022-07-06T07:49:02;99703.56;;;19.02;62.92
8318;BME280;4196;48.926;8.964;2022-07-06T07:51:52;99698.75;;;18.85;61.39
8318;BME280;4196;48.926;8.964;2022-07-06T07:54:41;99695.41;;;19.13;61.33
8318;BME280;4196;48.926;8.964;2022-07-06T07:57:34;99699.66;;;18.84;62.25
8318;BME280;4196;48.926;8.964;2022-07-06T08:00:21;99696.53;;;19.04;62.39
8318;BME280;4196;48.926;8.964;2022-07-06T08:03:15;99715.84;;;18.66;63.43
8318;BME280;4196;48.926;8.964;2022-07-06T08:06:07;99702.78;;;18.98;63.84
8318;BME280;4196;48.926;8.964;2022-07-06T08:08:57;99711.38;;;19.36;63.29
8318;BME280;4196;48.926;8.964;2022-07-06T08:11:46;99717.03;;;19.53;62.17
8318;BME280;4196;48.926;8.964;2022-07-06T08:14:33;99690.75;;;19.53;61.19
8318;BME280;4196;48.926;8.964;2022-07-06T08:17:21;99707.94;;;19.67;62.57
8318;BME280;4196;48.926;8.964;2022-07-06T08:20:10;99697.81;;;19.83;60.63
8318;BME280;4196;48.926;8.964;2022-07-06T08:23:03;99693.88;;;19.68;59.69
8318;BME280;4196;48.926;8.964;2022-07-06T08:25:56;99700.38;;;19.84;60.82
8318;BME280;4196;48.926;8.964;2022-07-06T08:28:48;99678.69;;;19.48;60.90
8318;BME280;4196;48.926;8.964;2022-07-06T08:31:40;99702.97;;;19.54;59.52
8318;BME280;4196;48.926;8.964;2022-07-06T08:34:48;99711.50;;;19.33;60.46
8318;BME280;4196;48.926;8.964;2022-07-06T08:37:36;99703.63;;;19.33;61.97
8318;BME280;4196;48.926;8.964;2022-07-06T08:40:25;99712.28;;;19.35;61.80
8318;BME280;4196;48.926;8.964;2022-07-06T08:43:13;99706.09;;;19.38;62.33
8318;BME280;4196;48.926;8.964;2022-07-06T08:46:04;99704.19;;;19.43;62.67
8318;BME280;4196;48.926;8.964;2022-07-06T08:48:53;99702.38;;;19.76;62.40
8318;BME280;4196;48.926;8.964;2022-07-06T08:51:42;99709.84;;;19.59;60.75
8318;BME280;4196;48.926;8.964;2022-07-06T08:54:32;99696.66;;;19.63;61.61
8318;BME280;4196;48.926;8.964;2022-07-06T08:57:24;99701.03;;;19.61;60.12
8318;BME280;4196;48.926;8.964;2022-07-06T09:00:13;99689.66;;;19.62;60.85
8318;BME280;4196;48.926;8.964;2022-07-06T09:03:00;99707.06;;;19.66;59.35
8318;BME280;4196;48.926;8.964;2022-07-06T09:05:50;99709.94;;;19.87;60.81
8318;BME280;4196;48.926;8.964;2022-07-06T09:08:44;99725.31;;;19.71;60.51
8318;BME280;4196;48.926;8.964;2022-07-06T09:11:38;99720.75;;;19.77;60.94
8318;BME280;4196;48.926;8.964;2022-07-06T09:14:30;99729.84;;;19.66;61.00
8318;BME280;4196;48.926;8.964;2022-07-06T09:17:20;99717.50;;;19.97;61.43
8318;BME280;4196;48.926;8.964;2022-07-06T09:20:12;99715.13;;;19.90;60.50
8318;BME280;4196;48.926;8.964;2022-07-06T09:23:07;99706.59;;;20.10;61.03
8318;BME280;4196;48.926;8.964;2022-07-06T09:26:06;99722.81;;;20.24;59.45
8318;BME280;4196;48.926;8.964;2022-07-06T09:28:59;99717.69;;;20.47;59.02
8318;BME280;4196;48.926;8.964;2022-07-06T09:32:03;99709.91;;;20.44;59.10
8318;BME280;4196;48.926;8.964;2022-07-06T09:34:56;99716.88;;;20.45;57.27
8318;BME280;4196;48.926;8.964;2022-07-06T09:38:00;99721.72;;;20.31;58.33
8318;BME280;4196;48.926;8.964;2022-07-06T09:40:51;99719.25;;;20.55;58.87
8318;BME280;4196;48.926;8.964;2022-07-06T09:43:43;99710.84;;;20.70;58.72
8318;BME280;4196;48.926;8.964;2022-07-06T09:46:42;99719.00;;;20.87;57.11
8318;BME280;4196;48.926;8.964;2022-07-06T09:49:31;99725.09;;;20.89;57.96
8318;BME280;4196;48.926;8.964;2022-07-06T09:52:20;99733.44;;;20.75;57.00
8318;BME280;4196;48.926;8.964;2022-07-06T09:55:15;99714.97;;;20.50;58.49
8318;BME280;4196;48.926;8.964;2022-07-06T09:58:04;99740.38;;;20.23;58.57
8318;BME280;4196;48.926;8.964;2022-07-06T10:00:53;99721.22;;;20.46;58.02
8318;BME280;4196;48.926;8.964;2022-07-06T10:03:41;99735.03;;;20.26;57.50
8318;BME280;4196;48.926;8.964;2022-07-06T10:06:29;99734.03;;;20.59;58.30
8318;BME280;4196;48.926;8.964;2022-07-06T10:09:21;99719.56;;;20.44;58.13
8318;BME280;4196;48.926;8.964;2022-07-06T10:12:13;99730.78;;;20.77;58.28
8318;BME280;4196;48.926;8.964;2022-07-06T10:15:05;99717.50;;;20.80;56.98
8318;BME280;4196;48.926;8.964;2022-07-06T10:17:55;99742.84;;;20.84;56.87
8318;BME280;4196;48.926;8.964;2022-07-06T10:20:45;99731.88;;;20.96;56.68
8318;BME280;4196;48.926;8.964;2022-07-06T10:23:36;99714.94;;;20.52;57.43
8318;BME280;4196;48.926;8.964;2022-07-06T10:26:27;99743.63;;;20.86;58.73
8318;BME280;4196;48.926;8.964;2022-07-06T10:29:19;99743.63;;;20.86;56.69
8318;BME280;4196;48.926;8.964;2022-07-06T10:32:09;99744.34;;;20.91;56.18
8318;BME280;4196;48.926;8.964;2022-07-06T10:34:57;99720.66;;;20.65;56.11
8318;BME280;4196;48.926;8.964;2022-07-06T10:37:45;99740.69;;;20.95;56.39
8318;BME280;4196;48.926;8.964;2022-07-06T10:41:04;99730.69;;;21.30;56.37
8318;BME280;4196;48.926;8.964;2022-07-06T10:43:57;99741.31;;;21.27;55.06
8318;BME280;4196;48.926;8.964;2022-07-06T10:46:54;99740.81;;;21.42;56.50
8318;BME280;4196;48.926;8.964;2022-07-06T10:49:48;99739.81;;;21.70;56.11
8318;BME280;4196;48.926;8.964;2022-07-06T10:52:51;99744.97;;;21.73;55.09
8318;BME280;4196;48.926;8.964;2022-07-06T10:55:43;99730.16;;;21.45;53.83
8318;BME280;4196;48.926;8.964;2022-07-06T10:58:48;99731.78;;;21.73;54.52
8318;BME280;4196;48.926;8.964;2022-07-06T11:02:11;99743.81;;;21.57;53.29
8318;BME280;4196;48.926;8.964;2022-07-06T11:05:11;99732.97;;;21.41;54.69
8318;BME280;4196;48.926;8.964;2022-07-06T11:08:46;99732.47;;;21.78;53.57
8318;BME280;4196;48.926;8.964;2022-07-06T11:14:25;99721.28;;;21.71;53.21
8318;BME280;4196;48.926;8.964;2022-07-06T11:17:26;99717.47;;;21.80;55.05
8318;BME280;4196;48.926;8.964;2022-07-06T11:20:18;99726.28;;;21.31;54.06
8318;BME280;4196;48.926;8.964;2022-07-06T11:23:12;99732.31;;;21.34;53.46
8318;BME280;4196;48.926;8.964;2022-07-06T11:26:03;99722.03;;;21.27;52.79
8318;BME280;4196;48.926;8.964;2022-07-06T11:28:53;99721.34;;;21.21;54.44
8318;BME280;4196;48.926;8.964;2022-07-06T11:31:45;99716.25;;;21.65;53.25
8318;BME280;4196;48.926;8.964;2022-07-06T11:34:35;99714.47;;;22.11;51.15
8318;BME280;4196;48.926;8.964;2022-07-06T11:37:25;99722.63;;;22.51;50.01
8318;BME280;4196;48.926;8.964;2022-07-06T11:40:18;99714.59;;;22.54;49.70
8318;BME280;4196;48.926;8.964;2022-07-06T11:43:09;99706.16;;;22.86;49.39
8318;BME280;4196;48.926;8.964;2022-07-06T11:46:00;99719.88;;;22.74;49.34
8318;BME280;4196;48.926;8.964;2022-07-06T11:48:53;99714.06;;;22.66;48.43
8318;BME280;4196;48.926;8.964;2022-07-06T11:51:46;99712.97;;;22.06;49.72
8318;BME280;4196;48.926;8.964;2022-07-06T11:54:38;99707.41;;;22.35;50.54
8318;BME280;4196;48.926;8.964;2022-07-06T11:57:32;99708.38;;;22.55;48.68
8318;BME280;4196;48.926;8.964;2022-07-06T12:00:25;99707.34;;;22.79;49.39
8318;BME280;4196;48.926;8.964;2022-07-06T12:03:18;99704.94;;;22.31;48.38
8318;BME280;4196;48.926;8.964;2022-07-06T12:06:16;99705.50;;;21.93;50.83
8318;BME280;4196;48.926;8.964;2022-07-06T12:09:08;99703.72;;;21.94;50.97
8318;BME280;4196;48.926;8.964;2022-07-06T12:12:03;99711.47;;;21.99;50.24
8318;BME280;4196;48.926;8.964;2022-07-06T12:14:55;99698.78;;;21.39;49.12
8318;BME280;4196;48.926;8.964;2022-07-06T12:17:47;99705.94;;;21.36;51.98
8318;BME280;4196;48.926;8.964;2022-07-06T12:20:37;99695.06;;;21.90;51.48
8318;BME280;4196;48.926;8.964;2022-07-06T12:23:39;99696.81;;;21.91;51.00
8318;BME280;4196;48.926;8.964;2022-07-06T12:26:39;99685.47;;;22.11;48.56
8318;BME280;4196;48.926;8.964;2022-07-06T12:29:31;99692.28;;;22.61;48.71
8318;BME280;4196;48.926;8.964;2022-07-06T12:32:23;99691.19;;;22.45;49.53
8318;BME280;4196;48.926;8.964;2022-07-06T12:35:17;99675.00;;;22.10;49.48
8318;BME280;4196;48.926;8.964;2022-07-06T12:38:25;99669.59;;;22.35;49.66
8318;BME280;4196;48.926;8.964;2022-07-06T12:41:32;99679.38;;;22.53;46.81
8318;BME280;4196;48.926;8.964;2022-07-06T12:44:25;99688.03;;;22.57;46.69
8318;BME280;4196;48.926;8.964;2022-07-06T12:47:22;99670.44;;;22.57;47.67
8318;BME280;4196;48.926;8.964;2022-07-06T12:50:15;99671.47;;;23.16;47.19
8318;BME280;4196;48.926;8.964;2022-07-06T12:53:24;99672.25;;;23.56;44.75
8318;BME280;4196;48.926;8.964;2022-07-06T12:56:19;99666.53;;;22.86;45.72
8318;BME280;4196;48.926;8.964;2022-07-06T12:59:24;99675.84;;;22.75;46.69
8318;BME280;4196;48.926;8.964;2022-07-06T13:02:32;99643.31;;;22.54;46.90
8318;BME280;4196;48.926;8.964;2022-07-06T13:05:50;99656.50;;;22.74;46.78
8318;BME280;4196;48.926;8.964;2022-07-06T13:08:42;99674.88;;;23.18;47.10
8318;BME280;4196;48.926;8.964;2022-07-06T13:11:33;99642.66;;;23.10;45.86
8318;BME280;4196;48.926;8.964;2022-07-06T13:14:25;99664.34;;;23.56;45.95
8318;BME280;4196;48.926;8.964;2022-07-06T13:17:15;99637.41;;;23.29;43.46
8318;BME280;4196;48.926;8.964;2022-07-06T13:20:09;99643.31;;;23.34;45.23
8318;BME280;4196;48.926;8.964;2022-07-06T13:23:01;99659.94;;;22.76;44.41
8318;BME280;4196;48.926;8.964;2022-07-06T13:25:53;99659.41;;;22.88;46.05
8318;BME280;4196;48.926;8.964;2022-07-06T13:28:47;99661.91;;;23.12;47.27
8318;BME280;4196;48.926;8.964;2022-07-06T13:31:39;99653.00;;;23.54;44.69
8318;BME280;4196;48.926;8.964;2022-07-06T13:34:33;99641.13;;;23.44;44.59
8318;BME280;4196;48.926;8.964;2022-07-06T13:37:27;99656.50;;;22.74;44.70
8318;BME280;4196;48.926;8.964;2022-07-06T13:40:19;99660.78;;;22.99;44.71
8318;BME280;4196;48.926;8.964;2022-07-06T13:43:11;99632.69;;;23.17;44.33
8318;BME280;4196;48.926;8.964;2022-07-06T13:46:05;99637.16;;;23.73;44.74
8318;BME280;4196;48.926;8.964;2022-07-06T13:48:59;99641.22;;;23.42;43.73
8318;BME280;4196;48.926;8.964;2022-07-06T13:51:51;99648.00;;;23.67;45.54
8318;BME280;4196;48.926;8.964;2022-07-06T13:54:50;99645.13;;;23.52;44.73
8318;BME280;4196;48.926;8.964;2022-07-06T13:57:48;99636.09;;;23.56;44.43
8318;BME280;4196;48.926;8.964;2022-07-06T14:00:38;99622.41;;;23.48;42.77
8318;BME280;4196;48.926;8.964;2022-07-06T14:03:27;99629.97;;;23.56;43.68
8318;BME280;4196;48.926;8.964;2022-07-06T14:06:19;99628.13;;;23.77;44.31
8318;BME280;4196;48.926;8.964;2022-07-06T14:09:07;99625.34;;;23.61;42.39
8318;BME280;4196;48.926;8.964;2022-07-06T14:11:57;99627.06;;;23.81;44.31
8318;BME280;4196;48.926;8.964;2022-07-06T14:14:47;99616.00;;;24.09;43.68
8318;BME280;4196;48.926;8.964;2022-07-06T14:17:36;99618.03;;;24.21;43.04
8318;BME280;4196;48.926;8.964;2022-07-06T14:20:27;99611.41;;;24.13;43.29
8318;BME280;4196;48.926;8.964;2022-07-06T14:23:17;99589.66;;;24.42;42.14
8318;BME280;4196;48.926;8.964;2022-07-06T14:26:09;99581.47;;;24.47;42.80
8318;BME280;4196;48.926;8.964;2022-07-06T14:29:03;99603.25;;;24.17;40.60
8318;BME280;4196;48.926;8.964;2022-07-06T14:31:55;99610.84;;;24.06;40.42
8318;BME280;4196;48.926;8.964;2022-07-06T14:34:48;99611.41;;;23.38;42.05
8318;BME280;4196;48.926;8.964;2022-07-06T14:37:41;99599.28;;;23.34;42.09
8318;BME280;4196;48.926;8.964;2022-07-06T14:40:33;99601.53;;;23.61;42.45
8318;BME280;4196;48.926;8.964;2022-07-06T14:43:26;99579.69;;;23.76;42.59
8318;BME280;4196;48.926;8.964;2022-07-06T14:46:18;99568.34;;;23.92;40.66
8318;BME280;4196;48.926;8.964;2022-07-06T14:49:13;99592.63;;;23.82;40.64
8318;BME280;4196;48.926;8.964;2022-07-06T14:52:09;99590.81;;;24.19;42.06
8318;BME280;4196;48.926;8.964;2022-07-06T14:55:02;99605.19;;;23.58;41.68
8318;BME280;4196;48.926;8.964;2022-07-06T14:58:02;99586.41;;;23.65;42.11
8318;BME280;4196;48.926;8.964;2022-07-06T15:00:55;99595.06;;;23.68;41.21
8318;BME280;4196;48.926;8.964;2022-07-06T15:03:48;99599.09;;;23.37;41.92
8318;BME280;4196;48.926;8.964;2022-07-06T15:06:40;99594.97;;;23.13;42.69
8318;BME280;4196;48.926;8.964;2022-07-06T15:09:43;99582.38;;;22.99;42.74
8318;BME280;4196;48.926;8.964;2022-07-06T15:12:36;99584.03;;;23.02;42.03
8318;BME280;4196;48.926;8.964;2022-07-06T15:15:29;99562.88;;;22.62;42.82
8318;BME280;4196;48.926;8.964;2022-07-06T15:18:41;99579.97;;;22.54;42.20
8318;BME280;4196;48.926;8.964;2022-07-06T15:21:32;99581.09;;;22.48;44.01
8318;BME280;4196;48.926;8.964;2022-07-06T15:24:24;99588.13;;;22.68;43.55
8318;BME280;4196;48.926;8.964;2022-07-06T15:27:14;99592.41;;;22.71;42.86
8318;BME280;4196;48.926;8.964;2022-07-06T15:30:03;99577.19;;;22.36;41.44
8318;BME280;4196;48.926;8.964;2022-07-06T15:33:13;99573.66;;;22.15;41.13